Ashburn, MO (63433)

4:08 PM CDT on March 24, 2017 (GMT -0500)
N0YWD | | Change Station

Elev 525 ft 39.44 °N, 91.06 °W | Updated 57 seconds ago

Mostly Cloudy
Mostly Cloudy
75.3 °F
Feels Like 78 °F
N
9.0
Wind Variable Wind from SW
Gusts 12.0 mph

Today
High -- | Low -- °F
--% Chance of Precip.
Yesterday
High -- | Low -- °F
Precip. -- in
Pressure 29.96 in
Visibility 7.0 miles
Clouds Scattered Clouds 4900 ft
Overcast 6000 ft
Heat Index 78 °F
Dew Point 56 °F
Humidity 52%
Rainfall 0.00 in
Snow Depth Not available.
7:01 AM 7:21 PM
Waning Crescent, 13% visible
METAR KHAE 242055Z AUTO 29012KT 7SM RA SCT049 OVC060 16/11 A2996 RMK AO2
Pressure 29.96 in
Visibility 7.0 miles
Clouds Scattered Clouds 4900 ft
Overcast 6000 ft
Heat Index 78 °F
Dew Point 56 °F
Humidity 52%
Rainfall 0.00 in
Snow Depth Not available.
7:01 AM 7:21 PM
Waning Crescent, 13% visible
METAR KHAE 242055Z AUTO 29012KT 7SM RA SCT049 OVC060 16/11 A2996 RMK AO2

Get Severe Weather Alerts

Thanks for signing up!

Be on the lookout for a verification email in your inbox.

You'll start receiving the daily forecast at 8 AM.

×

10-Day Weather Forecast

Almanac

Astronomy

Mar. 24, 2017 Rise Set
Actual Time
Civil Twilight
Nautical Twilight
Astronomical Twilight
Moon
Length of Visible Light
Length of Day
Tomorrow will be .
, % of the Moon is Illuminated

Today's Extremes

State Highs State Lows

Community

WunderPhotos

Upload Photos

1,962,540 photos uploaded!

WunderBlog® & News

Nearby

Air Quality

  Air Quality AQ Index Pollutant
Not available.

Snow Depth

Station Depth Elevation

Earthquake Activity

City Distance Mag. Time & Date
Minimum magnitude displayed is 2.5.

Earthquake Activity

City Distance Mag. Time & Date
Minimum magnitude displayed is 2.5.

Coastal Water Temperatures

Place Temperature

Stations

Nearby Weather Stations

Station Location Temp. Windchill Dew Point Humidity Wind Precip. Elev Updated Type
                   

Watches & Warnings

There are currently no watches in effect.